Terminal Aerodrome Forecast
Issued by NWS

Home | Current Version | Previous Version | Graphics & Text | Print | Product List | Glossary On
Versions: 1 2 3 4 5 6 7 8 9 10 11 12
000
FTUS43 KMPX 160520
TAFAXN
TAF
KAXN 160520Z 1606/1706 24007KT P6SM SCT250
     FM161800 21017G24KT P6SM SKC
     FM162300 21010KT P6SM SKC=

USA.gov is the U.S. government's official web portal to all federal, state and local government web resources and services.